sensor_id;sensor_type;location;lat;lon;timestamp;P1;durP1;ratioP1;P2;durP2;ratioP2
12253;SDS011;6189;52.526;13.390;2022-08-30T00:01:10;3.67;;;2.70;;
12253;SDS011;6189;52.526;13.390;2022-08-30T00:03:57;3.40;;;2.30;;
12253;SDS011;6189;52.526;13.390;2022-08-30T00:06:43;2.90;;;2.60;;
12253;SDS011;6189;52.526;13.390;2022-08-30T00:09:30;2.60;;;2.40;;
12253;SDS011;6189;52.526;13.390;2022-08-30T00:12:16;2.60;;;2.40;;
12253;SDS011;6189;52.526;13.390;2022-08-30T00:15:04;3.13;;;2.30;;
12253;SDS011;6189;52.526;13.390;2022-08-30T00:17:52;2.70;;;2.40;;
12253;SDS011;6189;52.526;13.390;2022-08-30T00:20:39;3.10;;;2.80;;
12253;SDS011;6189;52.526;13.390;2022-08-30T00:23:24;3.27;;;2.97;;
12253;SDS011;6189;52.526;13.390;2022-08-30T00:26:09;3.90;;;2.80;;
12253;SDS011;6189;52.526;13.390;2022-08-30T00:28:55;3.00;;;2.70;;
12253;SDS011;6189;52.526;13.390;2022-08-30T00:31:41;3.07;;;2.80;;
12253;SDS011;6189;52.526;13.390;2022-08-30T00:34:26;4.57;;;2.87;;
12253;SDS011;6189;52.526;13.390;2022-08-30T00:37:13;2.90;;;2.63;;
12253;SDS011;6189;52.526;13.390;2022-08-30T00:39:59;3.00;;;2.70;;
12253;SDS011;6189;52.526;13.390;2022-08-30T00:42:45;2.60;;;2.40;;
12253;SDS011;6189;52.526;13.390;2022-08-30T00:45:32;3.40;;;3.07;;
12253;SDS011;6189;52.526;13.390;2022-08-30T00:48:19;3.20;;;2.23;;
12253;SDS011;6189;52.526;13.390;2022-08-30T00:51:06;2.97;;;2.77;;
12253;SDS011;6189;52.526;13.390;2022-08-30T00:53:56;3.40;;;2.90;;
12253;SDS011;6189;52.526;13.390;2022-08-30T00:56:42;2.90;;;2.70;;
12253;SDS011;6189;52.526;13.390;2022-08-30T00:59:27;3.43;;;2.80;;
12253;SDS011;6189;52.526;13.390;2022-08-30T01:02:13;3.00;;;2.80;;
12253;SDS011;6189;52.526;13.390;2022-08-30T01:05:01;3.30;;;3.00;;
12253;SDS011;6189;52.526;13.390;2022-08-30T01:07:48;3.47;;;2.57;;
12253;SDS011;6189;52.526;13.390;2022-08-30T01:10:36;3.67;;;3.03;;
12253;SDS011;6189;52.526;13.390;2022-08-30T01:13:22;2.80;;;2.60;;
12253;SDS011;6189;52.526;13.390;2022-08-30T01:16:10;5.33;;;3.50;;
12253;SDS011;6189;52.526;13.390;2022-08-30T01:18:56;2.87;;;2.67;;
12253;SDS011;6189;52.526;13.390;2022-08-30T01:21:44;4.13;;;2.80;;
12253;SDS011;6189;52.526;13.390;2022-08-30T01:24:35;2.77;;;2.57;;
12253;SDS011;6189;52.526;13.390;2022-08-30T01:27:21;4.23;;;3.13;;
12253;SDS011;6189;52.526;13.390;2022-08-30T01:30:08;4.10;;;3.73;;
12253;SDS011;6189;52.526;13.390;2022-08-30T01:32:56;3.63;;;3.33;;
12253;SDS011;6189;52.526;13.390;2022-08-30T01:35:45;4.43;;;3.10;;
12253;SDS011;6189;52.526;13.390;2022-08-30T01:38:34;4.30;;;4.00;;
12253;SDS011;6189;52.526;13.390;2022-08-30T01:41:23;4.77;;;4.20;;
12253;SDS011;6189;52.526;13.390;2022-08-30T01:44:10;3.40;;;3.10;;
12253;SDS011;6189;52.526;13.390;2022-08-30T01:46:56;3.80;;;3.50;;
12253;SDS011;6189;52.526;13.390;2022-08-30T01:49:42;3.40;;;3.10;;
12253;SDS011;6189;52.526;13.390;2022-08-30T01:52:28;3.70;;;3.40;;
12253;SDS011;6189;52.526;13.390;2022-08-30T01:55:13;3.97;;;3.50;;
12253;SDS011;6189;52.526;13.390;2022-08-30T01:58:00;3.50;;;3.20;;
12253;SDS011;6189;52.526;13.390;2022-08-30T02:00:46;4.00;;;3.70;;
12253;SDS011;6189;52.526;13.390;2022-08-30T02:03:31;4.57;;;4.17;;
12253;SDS011;6189;52.526;13.390;2022-08-30T02:06:18;5.90;;;4.77;;
12253;SDS011;6189;52.526;13.390;2022-08-30T02:09:04;4.43;;;4.03;;
12253;SDS011;6189;52.526;13.390;2022-08-30T02:11:49;5.07;;;4.57;;
12253;SDS011;6189;52.526;13.390;2022-08-30T02:14:36;5.87;;;3.73;;
12253;SDS011;6189;52.526;13.390;2022-08-30T02:17:22;6.60;;;4.37;;
12253;SDS011;6189;52.526;13.390;2022-08-30T02:20:08;4.13;;;3.80;;
12253;SDS011;6189;52.526;13.390;2022-08-30T02:22:54;3.80;;;3.50;;
12253;SDS011;6189;52.526;13.390;2022-08-30T02:25:40;5.37;;;4.37;;
12253;SDS011;6189;52.526;13.390;2022-08-30T02:28:26;4.80;;;4.40;;
12253;SDS011;6189;52.526;13.390;2022-08-30T02:31:13;5.23;;;4.23;;
12253;SDS011;6189;52.526;13.390;2022-08-30T02:33:59;4.97;;;4.50;;
12253;SDS011;6189;52.526;13.390;2022-08-30T02:36:45;5.00;;;4.60;;
12253;SDS011;6189;52.526;13.390;2022-08-30T02:39:31;4.53;;;4.13;;
12253;SDS011;6189;52.526;13.390;2022-08-30T02:42:16;4.50;;;4.20;;
12253;SDS011;6189;52.526;13.390;2022-08-30T02:45:02;4.23;;;3.87;;
12253;SDS011;6189;52.526;13.390;2022-08-30T02:47:49;5.30;;;4.90;;
12253;SDS011;6189;52.526;13.390;2022-08-30T02:50:37;4.90;;;4.50;;
12253;SDS011;6189;52.526;13.390;2022-08-30T02:53:23;6.03;;;5.30;;
12253;SDS011;6189;52.526;13.390;2022-08-30T02:56:09;6.80;;;4.33;;
12253;SDS011;6189;52.526;13.390;2022-08-30T02:58:55;4.93;;;4.43;;
12253;SDS011;6189;52.526;13.390;2022-08-30T03:01:40;4.87;;;4.47;;
12253;SDS011;6189;52.526;13.390;2022-08-30T03:04:28;4.50;;;4.10;;
12253;SDS011;6189;52.526;13.390;2022-08-30T03:07:14;4.60;;;4.30;;
12253;SDS011;6189;52.526;13.390;2022-08-30T03:09:59;4.27;;;3.87;;
12253;SDS011;6189;52.526;13.390;2022-08-30T03:12:45;4.60;;;4.30;;
12253;SDS011;6189;52.526;13.390;2022-08-30T03:15:31;4.90;;;4.50;;
12253;SDS011;6189;52.526;13.390;2022-08-30T03:18:16;5.83;;;5.23;;
12253;SDS011;6189;52.526;13.390;2022-08-30T03:21:09;5.67;;;4.60;;
12253;SDS011;6189;52.526;13.390;2022-08-30T03:23:55;4.97;;;4.53;;
12253;SDS011;6189;52.526;13.390;2022-08-30T03:26:41;5.57;;;5.03;;
12253;SDS011;6189;52.526;13.390;2022-08-30T03:29:26;5.33;;;4.93;;
12253;SDS011;6189;52.526;13.390;2022-08-30T03:32:13;5.43;;;5.03;;
12253;SDS011;6189;52.526;13.390;2022-08-30T03:34:58;4.87;;;4.47;;
12253;SDS011;6189;52.526;13.390;2022-08-30T03:37:45;5.33;;;4.60;;
12253;SDS011;6189;52.526;13.390;2022-08-30T03:40:32;4.93;;;4.53;;
12253;SDS011;6189;52.526;13.390;2022-08-30T03:43:18;6.23;;;4.87;;
12253;SDS011;6189;52.526;13.390;2022-08-30T03:46:03;5.17;;;4.77;;
12253;SDS011;6189;52.526;13.390;2022-08-30T03:48:50;4.77;;;4.30;;
12253;SDS011;6189;52.526;13.390;2022-08-30T03:51:38;5.73;;;5.23;;
12253;SDS011;6189;52.526;13.390;2022-08-30T03:54:25;4.87;;;4.47;;
12253;SDS011;6189;52.526;13.390;2022-08-30T03:57:11;5.10;;;4.57;;
12253;SDS011;6189;52.526;13.390;2022-08-30T03:59:56;4.87;;;4.47;;
12253;SDS011;6189;52.526;13.390;2022-08-30T04:02:42;5.30;;;4.80;;
12253;SDS011;6189;52.526;13.390;2022-08-30T04:05:27;6.17;;;4.67;;
12253;SDS011;6189;52.526;13.390;2022-08-30T04:08:13;5.23;;;4.47;;
12253;SDS011;6189;52.526;13.390;2022-08-30T04:11:00;5.27;;;4.73;;
12253;SDS011;6189;52.526;13.390;2022-08-30T04:13:46;6.07;;;5.57;;
12253;SDS011;6189;52.526;13.390;2022-08-30T04:16:32;5.27;;;4.77;;
12253;SDS011;6189;52.526;13.390;2022-08-30T04:19:17;5.97;;;5.20;;
12253;SDS011;6189;52.526;13.390;2022-08-30T04:22:03;5.60;;;5.10;;
12253;SDS011;6189;52.526;13.390;2022-08-30T04:24:48;5.53;;;5.03;;
12253;SDS011;6189;52.526;13.390;2022-08-30T04:27:35;6.33;;;5.73;;
12253;SDS011;6189;52.526;13.390;2022-08-30T04:30:20;7.03;;;4.90;;
12253;SDS011;6189;52.526;13.390;2022-08-30T04:33:06;5.20;;;4.80;;
12253;SDS011;6189;52.526;13.390;2022-08-30T04:35:51;5.27;;;4.77;;
12253;SDS011;6189;52.526;13.390;2022-08-30T04:38:37;5.63;;;5.23;;
12253;SDS011;6189;52.526;13.390;2022-08-30T04:41:22;5.10;;;4.60;;
12253;SDS011;6189;52.526;13.390;2022-08-30T04:44:09;4.60;;;4.20;;
12253;SDS011;6189;52.526;13.390;2022-08-30T04:46:55;5.07;;;4.47;;
12253;SDS011;6189;52.526;13.390;2022-08-30T04:49:40;5.23;;;4.73;;
12253;SDS011;6189;52.526;13.390;2022-08-30T04:52:27;5.20;;;4.70;;
12253;SDS011;6189;52.526;13.390;2022-08-30T04:55:13;5.07;;;4.60;;
12253;SDS011;6189;52.526;13.390;2022-08-30T04:57:58;5.23;;;4.73;;
12253;SDS011;6189;52.526;13.390;2022-08-30T05:00:45;5.10;;;4.70;;
12253;SDS011;6189;52.526;13.390;2022-08-30T05:03:31;5.70;;;4.50;;
12253;SDS011;6189;52.526;13.390;2022-08-30T05:06:17;5.30;;;4.80;;
12253;SDS011;6189;52.526;13.390;2022-08-30T05:09:03;4.33;;;4.03;;
12253;SDS011;6189;52.526;13.390;2022-08-30T05:11:49;4.10;;;3.80;;
12253;SDS011;6189;52.526;13.390;2022-08-30T05:14:34;6.60;;;5.27;;
12253;SDS011;6189;52.526;13.390;2022-08-30T05:17:21;5.07;;;4.50;;
12253;SDS011;6189;52.526;13.390;2022-08-30T05:20:07;4.53;;;4.13;;
12253;SDS011;6189;52.526;13.390;2022-08-30T05:22:54;4.43;;;4.03;;
12253;SDS011;6189;52.526;13.390;2022-08-30T05:25:41;4.33;;;3.93;;
12253;SDS011;6189;52.526;13.390;2022-08-30T05:28:29;5.67;;;4.40;;
12253;SDS011;6189;52.526;13.390;2022-08-30T05:31:15;4.37;;;3.97;;
12253;SDS011;6189;52.526;13.390;2022-08-30T05:34:03;4.63;;;4.27;;
12253;SDS011;6189;52.526;13.390;2022-08-30T05:36:49;4.70;;;4.30;;
12253;SDS011;6189;52.526;13.390;2022-08-30T05:39:35;4.90;;;4.50;;
12253;SDS011;6189;52.526;13.390;2022-08-30T05:42:21;5.57;;;4.80;;
12253;SDS011;6189;52.526;13.390;2022-08-30T05:45:07;5.23;;;4.80;;
12253;SDS011;6189;52.526;13.390;2022-08-30T05:47:53;4.93;;;4.53;;
12253;SDS011;6189;52.526;13.390;2022-08-30T05:50:40;6.30;;;4.70;;
12253;SDS011;6189;52.526;13.390;2022-08-30T05:53:26;5.47;;;4.97;;
12253;SDS011;6189;52.526;13.390;2022-08-30T05:56:12;5.30;;;4.80;;
12253;SDS011;6189;52.526;13.390;2022-08-30T05:59:00;6.10;;;4.60;;
12253;SDS011;6189;52.526;13.390;2022-08-30T06:01:46;5.50;;;4.87;;
12253;SDS011;6189;52.526;13.390;2022-08-30T06:04:32;5.73;;;5.00;;
12253;SDS011;6189;52.526;13.390;2022-08-30T06:07:20;5.53;;;5.03;;
12253;SDS011;6189;52.526;13.390;2022-08-30T06:10:06;5.07;;;4.67;;
12253;SDS011;6189;52.526;13.390;2022-08-30T06:12:52;6.47;;;5.27;;
12253;SDS011;6189;52.526;13.390;2022-08-30T06:15:37;5.13;;;4.73;;
12253;SDS011;6189;52.526;13.390;2022-08-30T06:18:22;5.57;;;5.07;;
12253;SDS011;6189;52.526;13.390;2022-08-30T06:21:13;5.90;;;5.40;;
12253;SDS011;6189;52.526;13.390;2022-08-30T06:24:03;5.40;;;4.80;;
12253;SDS011;6189;52.526;13.390;2022-08-30T06:26:50;5.77;;;5.27;;
12253;SDS011;6189;52.526;13.390;2022-08-30T06:29:35;6.13;;;5.20;;
12253;SDS011;6189;52.526;13.390;2022-08-30T06:32:21;6.00;;;5.50;;
12253;SDS011;6189;52.526;13.390;2022-08-30T06:35:07;5.67;;;5.20;;
12253;SDS011;6189;52.526;13.390;2022-08-30T06:37:53;5.90;;;5.40;;
12253;SDS011;6189;52.526;13.390;2022-08-30T06:40:40;6.60;;;5.97;;
12253;SDS011;6189;52.526;13.390;2022-08-30T06:43:25;6.60;;;6.00;;
12253;SDS011;6189;52.526;13.390;2022-08-30T06:46:12;7.43;;;6.83;;
12253;SDS011;6189;52.526;13.390;2022-08-30T06:48:59;7.80;;;6.60;;
12253;SDS011;6189;52.526;13.390;2022-08-30T06:51:46;7.47;;;6.77;;
12253;SDS011;6189;52.526;13.390;2022-08-30T06:54:31;6.50;;;6.00;;
12253;SDS011;6189;52.526;13.390;2022-08-30T06:57:18;8.83;;;6.83;;
12253;SDS011;6189;52.526;13.390;2022-08-30T07:00:05;8.80;;;7.23;;
12253;SDS011;6189;52.526;13.390;2022-08-30T07:02:52;8.10;;;7.30;;
12253;SDS011;6189;52.526;13.390;2022-08-30T07:05:37;8.37;;;7.57;;
12253;SDS011;6189;52.526;13.390;2022-08-30T07:08:23;8.23;;;7.57;;
12253;SDS011;6189;52.526;13.390;2022-08-30T07:11:09;8.17;;;7.47;;
12253;SDS011;6189;52.526;13.390;2022-08-30T07:13:56;9.13;;;8.43;;
12253;SDS011;6189;52.526;13.390;2022-08-30T07:16:42;10.67;;;8.67;;
12253;SDS011;6189;52.526;13.390;2022-08-30T07:19:28;10.10;;;9.10;;
12253;SDS011;6189;52.526;13.390;2022-08-30T07:22:12;10.23;;;9.33;;
12253;SDS011;6189;52.526;13.390;2022-08-30T07:24:58;9.40;;;8.57;;
12253;SDS011;6189;52.526;13.390;2022-08-30T07:27:43;9.40;;;8.50;;
12253;SDS011;6189;52.526;13.390;2022-08-30T07:30:31;9.17;;;8.47;;
12253;SDS011;6189;52.526;13.390;2022-08-30T07:33:16;9.60;;;8.70;;
12253;SDS011;6189;52.526;13.390;2022-08-30T07:36:02;9.63;;;8.70;;
12253;SDS011;6189;52.526;13.390;2022-08-30T07:38:49;10.23;;;9.30;;
12253;SDS011;6189;52.526;13.390;2022-08-30T07:41:36;8.97;;;8.23;;
12253;SDS011;6189;52.526;13.390;2022-08-30T07:44:22;8.47;;;7.70;;
12253;SDS011;6189;52.526;13.390;2022-08-30T07:47:08;10.40;;;8.20;;
12253;SDS011;6189;52.526;13.390;2022-08-30T07:49:54;9.87;;;8.90;;
12253;SDS011;6189;52.526;13.390;2022-08-30T07:52:40;8.80;;;7.70;;
12253;SDS011;6189;52.526;13.390;2022-08-30T07:55:25;9.33;;;8.30;;
12253;SDS011;6189;52.526;13.390;2022-08-30T07:58:11;10.10;;;7.70;;
12253;SDS011;6189;52.526;13.390;2022-08-30T08:00:57;8.73;;;7.93;;
12253;SDS011;6189;52.526;13.390;2022-08-30T08:03:46;8.10;;;7.40;;
12253;SDS011;6189;52.526;13.390;2022-08-30T08:06:36;8.73;;;7.87;;
12253;SDS011;6189;52.526;13.390;2022-08-30T08:09:22;8.60;;;6.47;;
12253;SDS011;6189;52.526;13.390;2022-08-30T08:12:07;7.67;;;6.93;;
12253;SDS011;6189;52.526;13.390;2022-08-30T08:14:53;7.30;;;6.67;;
12253;SDS011;6189;52.526;13.390;2022-08-30T08:17:39;6.70;;;6.20;;
12253;SDS011;6189;52.526;13.390;2022-08-30T08:20:26;6.57;;;6.00;;
12253;SDS011;6189;52.526;13.390;2022-08-30T08:23:11;6.80;;;5.43;;
12253;SDS011;6189;52.526;13.390;2022-08-30T08:25:57;5.27;;;4.83;;
12253;SDS011;6189;52.526;13.390;2022-08-30T08:28:42;4.87;;;4.37;;
12253;SDS011;6189;52.526;13.390;2022-08-30T08:31:29;7.83;;;4.73;;
12253;SDS011;6189;52.526;13.390;2022-08-30T08:34:15;5.63;;;4.57;;
12253;SDS011;6189;52.526;13.390;2022-08-30T08:37:02;5.43;;;4.33;;
12253;SDS011;6189;52.526;13.390;2022-08-30T08:39:48;4.50;;;3.93;;
12253;SDS011;6189;52.526;13.390;2022-08-30T08:42:35;5.10;;;4.60;;
12253;SDS011;6189;52.526;13.390;2022-08-30T08:45:38;4.20;;;3.90;;
12253;SDS011;6189;52.526;13.390;2022-08-30T08:48:31;4.70;;;3.70;;
12253;SDS011;6189;52.526;13.390;2022-08-30T08:51:20;4.87;;;3.73;;
12253;SDS011;6189;52.526;13.390;2022-08-30T08:54:29;3.77;;;3.47;;
12253;SDS011;6189;52.526;13.390;2022-08-30T08:57:20;3.77;;;3.40;;
12253;SDS011;6189;52.526;13.390;2022-08-30T09:00:06;3.90;;;3.30;;
12253;SDS011;6189;52.526;13.390;2022-08-30T09:02:56;3.70;;;3.00;;
12253;SDS011;6189;52.526;13.390;2022-08-30T09:05:43;3.17;;;2.87;;
12253;SDS011;6189;52.526;13.390;2022-08-30T09:08:30;5.50;;;2.90;;
12253;SDS011;6189;52.526;13.390;2022-08-30T09:11:19;3.23;;;2.90;;
12253;SDS011;6189;52.526;13.390;2022-08-30T09:14:10;3.33;;;2.83;;
12253;SDS011;6189;52.526;13.390;2022-08-30T09:16:59;2.87;;;2.67;;
12253;SDS011;6189;52.526;13.390;2022-08-30T09:19:55;2.53;;;2.33;;
12253;SDS011;6189;52.526;13.390;2022-08-30T09:22:42;3.03;;;2.07;;
12253;SDS011;6189;52.526;13.390;2022-08-30T09:25:28;2.33;;;2.13;;
12253;SDS011;6189;52.526;13.390;2022-08-30T09:28:20;2.83;;;2.50;;
12253;SDS011;6189;52.526;13.390;2022-08-30T09:31:17;4.40;;;1.80;;
12253;SDS011;6189;52.526;13.390;2022-08-30T09:34:05;2.77;;;1.90;;
12253;SDS011;6189;52.526;13.390;2022-08-30T09:36:52;1.97;;;1.73;;
12253;SDS011;6189;52.526;13.390;2022-08-30T09:39:38;2.50;;;2.10;;
12253;SDS011;6189;52.526;13.390;2022-08-30T09:42:28;1.97;;;1.60;;
12253;SDS011;6189;52.526;13.390;2022-08-30T09:45:19;2.13;;;1.73;;
12253;SDS011;6189;52.526;13.390;2022-08-30T09:48:23;1.40;;;1.30;;
12253;SDS011;6189;52.526;13.390;2022-08-30T09:51:21;1.67;;;1.50;;
12253;SDS011;6189;52.526;13.390;2022-08-30T09:54:18;3.83;;;1.63;;
12253;SDS011;6189;52.526;13.390;2022-08-30T09:57:10;3.40;;;1.70;;
12253;SDS011;6189;52.526;13.390;2022-08-30T10:00:04;4.27;;;1.50;;
12253;SDS011;6189;52.526;13.390;2022-08-30T10:03:01;1.60;;;1.33;;
12253;SDS011;6189;52.526;13.390;2022-08-30T10:05:57;2.13;;;1.50;;
12253;SDS011;6189;52.526;13.390;2022-08-30T10:08:57;2.60;;;1.70;;
12253;SDS011;6189;52.526;13.390;2022-08-30T10:11:51;2.60;;;1.50;;
12253;SDS011;6189;52.526;13.390;2022-08-30T10:14:50;1.93;;;1.67;;
12253;SDS011;6189;52.526;13.390;2022-08-30T10:17:41;1.70;;;1.50;;
12253;SDS011;6189;52.526;13.390;2022-08-30T10:20:35;3.27;;;1.70;;
12253;SDS011;6189;52.526;13.390;2022-08-30T10:23:28;1.80;;;1.60;;
12253;SDS011;6189;52.526;13.390;2022-08-30T10:26:21;1.80;;;1.53;;
12253;SDS011;6189;52.526;13.390;2022-08-30T10:29:12;2.80;;;1.80;;
12253;SDS011;6189;52.526;13.390;2022-08-30T10:32:02;1.93;;;1.50;;
12253;SDS011;6189;52.526;13.390;2022-08-30T10:34:55;1.83;;;1.73;;
12253;SDS011;6189;52.526;13.390;2022-08-30T10:37:49;3.23;;;1.90;;
12253;SDS011;6189;52.526;13.390;2022-08-30T10:40:37;1.90;;;1.70;;
12253;SDS011;6189;52.526;13.390;2022-08-30T10:43:47;3.13;;;1.90;;
12253;SDS011;6189;52.526;13.390;2022-08-30T10:46:38;1.90;;;1.40;;
12253;SDS011;6189;52.526;13.390;2022-08-30T10:49:34;2.03;;;1.57;;
12253;SDS011;6189;52.526;13.390;2022-08-30T10:52:24;1.60;;;1.40;;
12253;SDS011;6189;52.526;13.390;2022-08-30T10:55:16;2.03;;;1.40;;
12253;SDS011;6189;52.526;13.390;2022-08-30T10:58:04;2.20;;;1.60;;
12253;SDS011;6189;52.526;13.390;2022-08-30T11:00:53;2.30;;;1.33;;
12253;SDS011;6189;52.526;13.390;2022-08-30T11:03:59;3.97;;;1.50;;
12253;SDS011;6189;52.526;13.390;2022-08-30T11:07:07;2.33;;;1.50;;
12253;SDS011;6189;52.526;13.390;2022-08-30T11:10:14;3.90;;;1.40;;
12253;SDS011;6189;52.526;13.390;2022-08-30T11:13:17;3.17;;;1.50;;
12253;SDS011;6189;52.526;13.390;2022-08-30T11:16:07;1.87;;;1.47;;
12253;SDS011;6189;52.526;13.390;2022-08-30T11:18:58;2.10;;;1.70;;
12253;SDS011;6189;52.526;13.390;2022-08-30T11:21:43;1.60;;;1.20;;
12253;SDS011;6189;52.526;13.390;2022-08-30T11:24:29;2.07;;;1.70;;
12253;SDS011;6189;52.526;13.390;2022-08-30T11:27:49;1.47;;;1.37;;
12253;SDS011;6189;52.526;13.390;2022-08-30T11:30:49;2.40;;;1.70;;
12253;SDS011;6189;52.526;13.390;2022-08-30T11:33:47;2.63;;;1.83;;
12253;SDS011;6189;52.526;13.390;2022-08-30T11:42:43;2.33;;;1.60;;
12253;SDS011;6189;52.526;13.390;2022-08-30T11:45:44;2.20;;;1.73;;
12253;SDS011;6189;52.526;13.390;2022-08-30T11:48:39;1.87;;;1.60;;
12253;SDS011;6189;52.526;13.390;2022-08-30T11:51:31;3.90;;;1.60;;
12253;SDS011;6189;52.526;13.390;2022-08-30T11:54:30;2.13;;;1.50;;
12253;SDS011;6189;52.526;13.390;2022-08-30T11:57:23;1.30;;;1.20;;
12253;SDS011;6189;52.526;13.390;2022-08-30T12:00:24;2.30;;;1.60;;
12253;SDS011;6189;52.526;13.390;2022-08-30T12:03:27;1.83;;;1.53;;
12253;SDS011;6189;52.526;13.390;2022-08-30T12:12:52;1.60;;;1.33;;
12253;SDS011;6189;52.526;13.390;2022-08-30T12:18:44;2.43;;;1.40;;
12253;SDS011;6189;52.526;13.390;2022-08-30T12:21:30;2.17;;;1.40;;
12253;SDS011;6189;52.526;13.390;2022-08-30T12:24:19;2.10;;;1.37;;
12253;SDS011;6189;52.526;13.390;2022-08-30T12:27:20;1.67;;;1.53;;
12253;SDS011;6189;52.526;13.390;2022-08-30T12:30:09;3.27;;;1.70;;
12253;SDS011;6189;52.526;13.390;2022-08-30T12:32:56;2.03;;;1.60;;
12253;SDS011;6189;52.526;13.390;2022-08-30T12:35:43;1.60;;;1.50;;
12253;SDS011;6189;52.526;13.390;2022-08-30T12:38:29;2.30;;;1.53;;
12253;SDS011;6189;52.526;13.390;2022-08-30T12:41:17;2.77;;;1.60;;
12253;SDS011;6189;52.526;13.390;2022-08-30T12:44:05;1.60;;;1.40;;
12253;SDS011;6189;52.526;13.390;2022-08-30T12:46:55;1.87;;;1.53;;
12253;SDS011;6189;52.526;13.390;2022-08-30T12:49:42;2.07;;;1.40;;
12253;SDS011;6189;52.526;13.390;2022-08-30T12:52:32;1.53;;;1.43;;
12253;SDS011;6189;52.526;13.390;2022-08-30T12:55:19;2.37;;;1.70;;
12253;SDS011;6189;52.526;13.390;2022-08-30T12:58:08;2.27;;;1.73;;
12253;SDS011;6189;52.526;13.390;2022-08-30T13:01:09;2.40;;;2.00;;
12253;SDS011;6189;52.526;13.390;2022-08-30T13:03:58;2.70;;;2.30;;
12253;SDS011;6189;52.526;13.390;2022-08-30T13:06:47;2.87;;;2.30;;
12253;SDS011;6189;52.526;13.390;2022-08-30T13:09:36;2.77;;;2.53;;
12253;SDS011;6189;52.526;13.390;2022-08-30T13:12:25;2.53;;;2.30;;
12253;SDS011;6189;52.526;13.390;2022-08-30T13:15:15;3.20;;;2.70;;
12253;SDS011;6189;52.526;13.390;2022-08-30T13:18:16;3.47;;;2.70;;
12253;SDS011;6189;52.526;13.390;2022-08-30T13:21:10;3.83;;;2.67;;
12253;SDS011;6189;52.526;13.390;2022-08-30T13:24:07;3.00;;;2.77;;
12253;SDS011;6189;52.526;13.390;2022-08-30T13:26:54;4.50;;;3.00;;
12253;SDS011;6189;52.526;13.390;2022-08-30T13:29:42;3.40;;;3.10;;
12253;SDS011;6189;52.526;13.390;2022-08-30T13:32:27;3.10;;;2.30;;
12253;SDS011;6189;52.526;13.390;2022-08-30T13:35:13;2.40;;;2.20;;
12253;SDS011;6189;52.526;13.390;2022-08-30T13:37:59;2.70;;;2.20;;
12253;SDS011;6189;52.526;13.390;2022-08-30T13:40:45;2.67;;;2.47;;
12253;SDS011;6189;52.526;13.390;2022-08-30T13:43:32;3.33;;;2.43;;
12253;SDS011;6189;52.526;13.390;2022-08-30T13:46:18;2.97;;;2.63;;
12253;SDS011;6189;52.526;13.390;2022-08-30T13:49:06;3.97;;;2.33;;
12253;SDS011;6189;52.526;13.390;2022-08-30T13:51:53;2.77;;;2.50;;
12253;SDS011;6189;52.526;13.390;2022-08-30T13:54:38;3.10;;;2.80;;
12253;SDS011;6189;52.526;13.390;2022-08-30T13:57:25;2.60;;;2.40;;
12253;SDS011;6189;52.526;13.390;2022-08-30T14:00:14;2.83;;;2.47;;
12253;SDS011;6189;52.526;13.390;2022-08-30T14:03:02;3.20;;;2.90;;
12253;SDS011;6189;52.526;13.390;2022-08-30T14:05:48;3.47;;;2.60;;
12253;SDS011;6189;52.526;13.390;2022-08-30T14:08:34;3.00;;;2.70;;
12253;SDS011;6189;52.526;13.390;2022-08-30T14:11:20;2.90;;;2.70;;
12253;SDS011;6189;52.526;13.390;2022-08-30T14:14:06;3.60;;;2.70;;
12253;SDS011;6189;52.526;13.390;2022-08-30T14:16:53;3.87;;;2.70;;
12253;SDS011;6189;52.526;13.390;2022-08-30T14:19:39;5.00;;;2.57;;
12253;SDS011;6189;52.526;13.390;2022-08-30T14:22:24;3.43;;;2.60;;
12253;SDS011;6189;52.526;13.390;2022-08-30T14:25:09;3.07;;;2.77;;
12253;SDS011;6189;52.526;13.390;2022-08-30T14:27:55;3.20;;;3.00;;
12253;SDS011;6189;52.526;13.390;2022-08-30T14:30:41;3.20;;;2.80;;
12253;SDS011;6189;52.526;13.390;2022-08-30T14:33:28;2.60;;;2.40;;
12253;SDS011;6189;52.526;13.390;2022-08-30T14:36:13;3.33;;;2.73;;
12253;SDS011;6189;52.526;13.390;2022-08-30T14:38:59;2.60;;;2.40;;
12253;SDS011;6189;52.526;13.390;2022-08-30T14:41:46;2.63;;;2.40;;
12253;SDS011;6189;52.526;13.390;2022-08-30T14:44:32;2.97;;;2.30;;
12253;SDS011;6189;52.526;13.390;2022-08-30T14:47:18;4.03;;;2.70;;
12253;SDS011;6189;52.526;13.390;2022-08-30T14:50:06;4.10;;;2.60;;
12253;SDS011;6189;52.526;13.390;2022-08-30T14:52:52;2.70;;;2.50;;
12253;SDS011;6189;52.526;13.390;2022-08-30T14:55:37;2.80;;;2.60;;
12253;SDS011;6189;52.526;13.390;2022-08-30T14:58:24;2.97;;;2.67;;
12253;SDS011;6189;52.526;13.390;2022-08-30T15:01:10;12.57;;;3.30;;
12253;SDS011;6189;52.526;13.390;2022-08-30T15:03:56;3.53;;;2.33;;
12253;SDS011;6189;52.526;13.390;2022-08-30T15:06:45;6.53;;;2.90;;
12253;SDS011;6189;52.526;13.390;2022-08-30T15:09:31;11.43;;;3.23;;
12253;SDS011;6189;52.526;13.390;2022-08-30T15:12:17;3.00;;;2.70;;
12253;SDS011;6189;52.526;13.390;2022-08-30T15:15:03;4.43;;;3.00;;
12253;SDS011;6189;52.526;13.390;2022-08-30T15:17:49;4.13;;;2.70;;
12253;SDS011;6189;52.526;13.390;2022-08-30T15:20:34;3.10;;;2.80;;
12253;SDS011;6189;52.526;13.390;2022-08-30T15:23:21;7.40;;;2.83;;
12253;SDS011;6189;52.526;13.390;2022-08-30T15:26:07;3.10;;;2.60;;
12253;SDS011;6189;52.526;13.390;2022-08-30T15:28:53;3.00;;;2.67;;
12253;SDS011;6189;52.526;13.390;2022-08-30T15:31:39;3.13;;;2.83;;
12253;SDS011;6189;52.526;13.390;2022-08-30T15:34:25;3.70;;;2.83;;
12253;SDS011;6189;52.526;13.390;2022-08-30T15:37:10;3.33;;;2.73;;
12253;SDS011;6189;52.526;13.390;2022-08-30T15:39:57;2.60;;;2.40;;
12253;SDS011;6189;52.526;13.390;2022-08-30T15:42:42;4.57;;;2.80;;
12253;SDS011;6189;52.526;13.390;2022-08-30T15:45:28;2.67;;;2.33;;
12253;SDS011;6189;52.526;13.390;2022-08-30T15:48:14;2.60;;;2.40;;
12253;SDS011;6189;52.526;13.390;2022-08-30T15:50:59;2.60;;;2.37;;
12253;SDS011;6189;52.526;13.390;2022-08-30T15:53:45;3.07;;;2.50;;
12253;SDS011;6189;52.526;13.390;2022-08-30T15:56:32;2.57;;;2.37;;
12253;SDS011;6189;52.526;13.390;2022-08-30T15:59:18;2.77;;;2.43;;
12253;SDS011;6189;52.526;13.390;2022-08-30T16:02:03;2.97;;;2.67;;
12253;SDS011;6189;52.526;13.390;2022-08-30T16:04:49;2.40;;;2.20;;
12253;SDS011;6189;52.526;13.390;2022-08-30T16:07:35;2.60;;;2.40;;
12253;SDS011;6189;52.526;13.390;2022-08-30T16:10:20;3.53;;;2.40;;
12253;SDS011;6189;52.526;13.390;2022-08-30T16:13:07;3.47;;;2.53;;
12253;SDS011;6189;52.526;13.390;2022-08-30T16:15:52;2.53;;;2.23;;
12253;SDS011;6189;52.526;13.390;2022-08-30T16:18:39;2.30;;;2.10;;
12253;SDS011;6189;52.526;13.390;2022-08-30T16:21:25;2.70;;;2.20;;
12253;SDS011;6189;52.526;13.390;2022-08-30T16:24:12;5.03;;;2.50;;
12253;SDS011;6189;52.526;13.390;2022-08-30T16:27:00;2.53;;;2.33;;
12253;SDS011;6189;52.526;13.390;2022-08-30T16:29:47;2.93;;;2.20;;
12253;SDS011;6189;52.526;13.390;2022-08-30T16:32:33;2.97;;;2.30;;
12253;SDS011;6189;52.526;13.390;2022-08-30T16:35:18;3.20;;;2.30;;
12253;SDS011;6189;52.526;13.390;2022-08-30T16:38:04;2.50;;;2.10;;
12253;SDS011;6189;52.526;13.390;2022-08-30T16:40:50;2.23;;;1.90;;
12253;SDS011;6189;52.526;13.390;2022-08-30T16:43:36;4.80;;;2.10;;
12253;SDS011;6189;52.526;13.390;2022-08-30T16:46:24;3.10;;;2.10;;
12253;SDS011;6189;52.526;13.390;2022-08-30T16:49:09;3.13;;;2.10;;
12253;SDS011;6189;52.526;13.390;2022-08-30T16:51:55;3.60;;;1.90;;
12253;SDS011;6189;52.526;13.390;2022-08-30T16:54:41;2.50;;;1.77;;
12253;SDS011;6189;52.526;13.390;2022-08-30T16:57:27;2.43;;;1.97;;
12253;SDS011;6189;52.526;13.390;2022-08-30T17:00:14;3.23;;;2.40;;
12253;SDS011;6189;52.526;13.390;2022-08-30T17:03:01;2.30;;;2.10;;
12253;SDS011;6189;52.526;13.390;2022-08-30T17:05:48;6.03;;;2.23;;
12253;SDS011;6189;52.526;13.390;2022-08-30T17:08:33;2.33;;;2.00;;